Sunday, March 24, 2019, 8:16 PM EDT
Back to Local

KAUG, Augusta State Airport

Location: Augusta, ME, United States Lat: 44.317
Local Time: 8:16 PM EDT ( 0:16 GMT) Lon: -69.8
Time Zone: US/Eastern Elev: 351 ft

Show me the last for .
Show Coded

Time T Td Feel RH Dir Speed Gust Alt SLP Vis Weather Sky Remarks
2019-03-24 19:53 45 22 - 39 - Calm - 29.88 29.89 10 CLR 6-hr Min Temp (8pm): 45.0°F
6-hr Max Temp (8pm): 52.0°F
2019-03-24 18:53 46 21 43 36 290° 6 - 29.86 29.87 10 CLR None
2019-03-24 17:53 48 21 44 34 290° 8 - 29.86 29.87 10 CLR None
2019-03-24 16:53 50 20 44 30 300° 8 18 29.85 29.86 10 CLR None
2019-03-24 15:53 51 20 - 28 260° 9 17 29.86 29.86 10 CLR None
2019-03-24 14:53 49 18 46 28 Variable 7 - 29.86 29.87 10 CLR None
2019-03-24 13:53 47 19 40 32 230° 12 16 29.88 29.89 10 CLR 6-hr Min Temp (2pm): 32.0°F
6-hr Max Temp (2pm): 48.0°F
2019-03-24 12:53 47 18 39 31 280° 15 21 29.89 29.90 10 CLR None
2019-03-24 11:53 44 17 35 33 290° 14 23 29.91 29.92 10 CLR None
2019-03-24 10:53 39 16 33 38 270° 8 - 29.93 29.94 10 CLR None
2019-03-24 09:53 37 15 30 40 280° 9 - 29.94 29.95 10 CLR None
2019-03-24 08:53 34 12 26 39 280° 10 - 29.94 29.95 10 CLR None
2019-03-24 07:53 32 11 26 40 Variable 6 - 29.93 29.94 10 CLR 6-hr Min Temp (8am): 28.9°F
6-hr Max Temp (8am): 32.0°F
2019-03-24 06:53 30 9 26 40 220° 3 - 29.92 29.93 10 CLR None
2019-03-24 05:53 32 10 19 39 280° 14 22 29.90 29.91 10 CLR None
2019-03-24 04:53 32 9 21 37 270° 9 17 29.89 - 10 CLR None
2019-03-24 03:53 30 8 23 38 290° 7 - 29.88 29.89 10 CLR None
2019-03-24 02:53 30 8 25 38 270° 5 - 29.87 29.88 10 CLR None
2019-03-24 01:53 30 9 23 40 290° 7 - 29.86 29.87 10 CLR 6-hr Min Temp (2am): 28.9°F
6-hr Max Temp (2am): 33.1°F
2019-03-24 00:53 30 10 17 42 280° 14 23 29.84 29.85 10 CLR 24-hr Min Temp (1am): 28.9°F
24-hr Max Temp (1am): 42.1°F
2019-03-23 23:53 30 10 16 42 290° 18 26 29.83 29.84 10 CLR None
2019-03-23 22:53 29 12 19 48 280° 12 - 29.80 29.81 10 CLR None
2019-03-23 21:53 30 14 18 50 290° 9 18 29.78 29.79 10 CLR None
2019-03-23 20:53 31 15 23 51 280° 9 - 29.76 29.77 10 CLR None

Support USWX by starting your Amazon purchase here.